Grissom ARB Airport
KGUS : now visible

Airfield :











YOU CAN JOIN US ON...

 
LOGIN :

Register | Disclaimer

   EN    FR    IT 

 









Legend :    VFR   Marginal VFR   IFR   Intensive IFR   Very Intensive IFR
Visi :
Ceiling :
>= 8 km
>= 3000ft
5 to 8 km
1000 to 3000 ft
1500m to 5 km
500 to 1000 ft
800 to 1500m
200 to 500 ft
< 800m
< 200 ft
Symbols :   Thunderstorms  Fog  Heavy snow  Heavy precipitations  Wind > 20 kt







- Airport Elevation : 812 ft


KGUS - Grissom ARB

CURRENT METAR :
  • 201456Z AUTO 00000KT 10SM CLR 27/19 A3015 RMK AO2 SLP208 T02660192 51005 $

EXPIRED METARs :
  • 201430Z 00000KT 10SM CLR 26/20 A3016 RMK AO2A SLP212 $
  • 201356Z AUTO 26003KT 10SM CLR 24/19 A3015 RMK AO2 SLP209 T02430193 $
  • 201256Z AUTO 00000KT 10SM CLR 20/20 A3014 RMK AO2 SLP206 T01950195 $

TAF TAF KGUS
Valid from the 20 at 11:00 until the 21 at 17:00 UTC


201100Z 2011/2117 14006KT 9999 FEW220 QNH3013INS
BECMG 2015/2016 23006KT 9999 BKN050 OVC080 QNH3017INS
BECMG 2023/2024 20006KT 9999 SCT030 OVC050 QNH3013INS WND 21012KT AFT 2113
TEMPO 2115/2117 21012G20KT TX30/2021Z TN17/2109Z
No reported NOTAMs for that airfield.



MET'MAP, your aeronautical weather chart ! - Copyright ORBIFLY December 2007 - Disclaimer

ORBIFLY MET'MAP TEAM :

Programming & Development : Alexandra Zaïnal
Concept & Development : Baudouin d'Aumeries
Co-Development & Prog : Marc-Olivier Méhu
Technical & hardware support : Manuel Goepfert

Contact : metmap@orbifly.com




SOURCES & CREDITS :

   NOAA       Earth
Advisory